Time;durP1;ratioP1;P1;durP2;ratioP2;P2;SDS_P1;SDS_P2;PMS_P1;PMS_P2;Temp;Humidity;BMP_temperature;BMP_pressure;BME280_temperature;BME280_humidity;BME280_pressure;Samples;Min_cycle;Max_cycle;Signal;HPM_P1;HPM_P2
2021/11/12 00:02:09;;;;;;;0.40;0.30;;;;;;;8.42;100.00;101821.97;5056011;28;20438;-71
2021/11/12 00:04:20;;;;;;;0.50;0.40;;;;;;;8.42;100.00;101834.66;5055485;28;20503;-71
2021/11/12 00:12:29;;;;;;;0.40;0.30;;;;;;;8.43;100.00;101822.78;5055419;28;20793;-71
2021/11/12 00:14:56;;;;;;;0.40;0.30;;;;;;;8.43;100.00;101820.88;5055593;28;20466;-71
2021/11/12 00:17:28;;;;;;;0.40;0.30;;;;;;;8.43;100.00;101828.19;5055490;28;20446;-71
2021/11/12 00:19:56;;;;;;;0.40;0.30;;;;;;;8.43;100.00;101822.78;5055402;28;20467;-71
2021/11/12 00:22:23;;;;;;;0.40;0.30;;;;;;;8.42;100.00;101821.16;5055454;28;20443;-71
2021/11/12 00:24:53;;;;;;;0.40;0.30;;;;;;;8.44;100.00;101821.69;5055337;28;20497;-71
2021/11/12 00:27:20;;;;;;;0.40;0.30;;;;;;;8.40;100.00;101816.00;5055630;28;20482;-71
2021/11/12 00:29:50;;;;;;;0.40;0.30;;;;;;;8.36;100.00;101809.44;5055345;28;20442;-71
2021/11/12 00:32:25;;;;;;;0.40;0.30;;;;;;;8.38;100.00;101806.53;5055309;28;20493;-71
2021/11/12 00:37:52;;;;;;;1.13;1.07;;;;;;;8.37;100.00;101819.22;5054421;28;20461;-71
2021/11/12 00:40:23;;;;;;;0.63;0.30;;;;;;;8.41;100.00;101817.63;5054706;28;20473;-71
2021/11/12 00:43:06;;;;;;;1.17;0.83;;;;;;;8.41;100.00;101817.63;5055061;28;20426;-71
2021/11/12 00:45:37;;;;;;;0.40;0.30;;;;;;;8.42;100.00;101815.75;5054629;28;20999;-71
2021/11/12 00:48:13;;;;;;;0.90;0.90;;;;;;;8.42;100.00;101811.16;5055000;28;20434;-71
2021/11/12 00:50:56;;;;;;;2.57;2.47;;;;;;;8.50;100.00;101809.84;5054873;28;20426;-71
2021/11/12 00:56:26;;;;;;;0.40;0.30;;;;;;;8.54;100.00;101822.63;4993081;28;20888;-71
2021/11/12 00:58:54;;;;;;;0.40;0.30;;;;;;;8.55;100.00;101818.84;4993110;28;20428;-71
2021/11/12 01:01:22;;;;;;;2.70;2.10;;;;;;;8.57;100.00;101821.28;5021798;28;20901;-71
2021/11/12 01:03:49;;;;;;;0.40;0.30;;;;;;;8.56;100.00;101822.34;5054623;28;20481;-71
2021/11/12 01:06:16;;;;;;;0.40;0.30;;;;;;;8.57;100.00;101818.56;5054542;28;20470;-70
2021/11/12 01:08:43;;;;;;;0.50;0.50;;;;;;;8.55;100.00;101816.13;5054495;28;20473;-70
2021/11/12 01:11:11;;;;;;;0.40;0.30;;;;;;;8.55;100.00;101818.03;5054471;28;20438;-70
2021/11/12 01:13:40;;;;;;;0.40;0.30;;;;;;;8.56;100.00;101819.66;5054417;28;20442;-70
2021/11/12 01:16:07;;;;;;;0.40;0.23;;;;;;;8.58;100.00;101814.78;5054336;28;20838;-70
2021/11/12 01:18:36;;;;;;;0.40;0.30;;;;;;;8.55;100.00;101815.34;5054330;28;20439;-70
2021/11/12 01:21:03;;;;;;;0.40;0.30;;;;;;;8.57;100.00;101813.16;5053498;28;20483;-70
2021/11/12 01:23:29;;;;;;;5.60;2.60;;;;;;;8.56;100.00;101812.38;5054075;28;20448;-70
2021/11/12 01:25:56;;;;;;;0.40;0.27;;;;;;;8.59;100.00;101811.03;5054131;28;20466;-70
2021/11/12 01:28:22;;;;;;;0.40;0.30;;;;;;;8.65;100.00;101818.09;5054167;28;20450;-70
2021/11/12 01:30:50;;;;;;;0.40;0.30;;;;;;;8.65;100.00;101822.69;5053839;28;20947;-71
2021/11/12 01:33:17;;;;;;;0.40;0.30;;;;;;;8.65;100.00;101826.22;5054068;28;20453;-71
2021/11/12 01:35:43;;;;;;;0.50;0.40;;;;;;;8.61;100.00;101824.28;5053698;28;20979;-70
2021/11/12 01:38:10;;;;;;;0.40;0.30;;;;;;;8.60;100.00;101815.38;5053625;28;20461;-71
2021/11/12 01:40:36;;;;;;;0.40;0.30;;;;;;;8.64;100.00;101811.09;5053810;28;20482;-71
2021/11/12 01:43:08;;;;;;;0.40;0.30;;;;;;;8.66;100.00;101808.94;5053882;28;20438;-71
2021/11/12 01:45:47;;;;;;;0.40;0.30;;;;;;;8.68;100.00;101812.19;5053784;28;20466;-71
2021/11/12 01:48:23;;;;;;;0.50;0.50;;;;;;;8.69;100.00;101813.00;5053926;28;20464;-71
2021/11/12 01:50:55;;;;;;;0.40;0.30;;;;;;;8.67;100.00;101799.75;5053894;28;20422;-71
2021/11/12 01:53:27;;;;;;;0.40;0.30;;;;;;;8.71;100.00;101805.44;5053678;28;20422;-71
2021/11/12 01:56:11;;;;;;;0.40;0.23;;;;;;;8.71;100.00;101802.75;5053333;28;21025;-71
2021/11/12 01:58:53;;;;;;;0.40;0.23;;;;;;;8.73;100.00;101798.72;5053642;28;20759;-70
2021/11/12 02:01:21;;;;;;;0.40;0.30;;;;;;;8.74;100.00;101800.34;5053556;28;20497;-70
2021/11/12 02:03:50;;;;;;;0.47;0.30;;;;;;;8.75;100.00;101804.69;5053541;28;20446;-70
2021/11/12 02:06:19;;;;;;;1.57;1.47;;;;;;;8.77;100.00;101802.53;5053441;28;20458;-70
2021/11/12 02:08:45;;;;;;;1.43;1.33;;;;;;;8.77;100.00;101797.16;5053477;28;20439;-70
2021/11/12 02:11:12;;;;;;;0.50;0.40;;;;;;;8.78;100.00;101801.47;5053175;28;20504;-71
2021/11/12 02:13:41;;;;;;;0.40;0.30;;;;;;;8.76;100.00;101798.19;5053138;28;20923;-70
2021/11/12 02:16:08;;;;;;;0.40;0.30;;;;;;;8.75;100.00;101793.06;5053303;28;20473;-70
2021/11/12 02:18:38;;;;;;;0.40;0.30;;;;;;;8.74;100.00;101797.66;5053309;28;20589;-70
2021/11/12 02:21:10;;;;;;;0.50;0.50;;;;;;;8.68;100.00;101789.78;5053316;28;20558;-70
2021/11/12 02:23:39;;;;;;;0.40;0.30;;;;;;;8.68;100.00;101800.59;5053168;28;20500;-71
2021/11/12 02:26:08;;;;;;;0.40;0.30;;;;;;;8.75;100.00;101795.75;5052995;28;20549;-70
2021/11/12 02:28:39;;;;;;;0.50;0.30;;;;;;;8.74;100.00;101791.44;5052897;28;20959;-70
2021/11/12 02:31:05;;;;;;;0.40;0.30;;;;;;;8.69;100.00;101784.09;5053202;28;20480;-70
2021/11/12 02:33:33;;;;;;;0.40;0.30;;;;;;;8.72;100.00;101789.00;5052650;28;20966;-70
2021/11/12 02:36:02;;;;;;;0.40;0.20;;;;;;;8.75;100.00;101785.75;5053210;28;20466;-70
2021/11/12 02:38:31;;;;;;;0.40;0.30;;;;;;;8.76;100.00;101789.28;5052660;28;20462;-70
2021/11/12 02:40:58;;;;;;;0.40;0.20;;;;;;;8.76;100.00;101790.09;5052974;28;20509;-70
2021/11/12 02:43:25;;;;;;;0.40;0.30;;;;;;;8.81;100.00;101783.94;5053035;28;20446;-70
2021/11/12 02:45:52;;;;;;;0.40;0.30;;;;;;;8.83;100.00;101796.09;5052992;28;20462;-70
2021/11/12 02:48:20;;;;;;;0.97;0.97;;;;;;;8.82;100.00;101790.97;5052674;28;21039;-70
2021/11/12 02:50:46;;;;;;;0.40;0.30;;;;;;;8.86;100.00;101783.97;5053011;28;20441;-70
2021/11/12 02:53:15;;;;;;;0.40;0.30;;;;;;;8.88;100.00;101789.09;5052988;28;20488;-70
2021/11/12 02:55:44;;;;;;;0.40;0.30;;;;;;;8.86;100.00;101797.47;5052899;28;20983;-70
2021/11/12 02:58:11;;;;;;;0.60;0.30;;;;;;;8.84;100.00;101797.72;5052928;28;20508;-70
2021/11/12 03:00:40;;;;;;;4.53;4.13;;;;;;;8.82;100.00;101789.06;5052760;28;20482;-70
2021/11/12 03:03:07;;;;;;;0.50;0.40;;;;;;;8.79;100.00;101797.69;5052825;28;20446;-70
2021/11/12 03:05:34;;;;;;;0.40;0.20;;;;;;;8.81;100.00;101789.34;5052408;28;20457;-70
2021/11/12 03:08:01;;;;;;;0.40;0.30;;;;;;;8.79;100.00;101792.28;5052878;28;20446;-70
2021/11/12 03:10:28;;;;;;;0.60;0.60;;;;;;;8.79;100.00;101791.47;5052804;28;20816;-70
2021/11/12 03:12:55;;;;;;;0.40;0.30;;;;;;;8.78;100.00;101790.66;5052802;28;20838;-70
2021/11/12 03:15:22;;;;;;;0.40;0.30;;;;;;;8.76;100.00;101781.16;5052644;28;20465;-71
2021/11/12 03:17:55;;;;;;;0.40;0.30;;;;;;;8.75;100.00;101791.16;5052700;28;20431;-71
2021/11/12 03:20:23;;;;;;;0.40;0.30;;;;;;;8.72;100.00;101783.59;5052699;28;20466;-71
2021/11/12 03:22:53;;;;;;;0.40;0.30;;;;;;;8.72;100.00;101778.19;5052727;28;20486;-71
2021/11/12 03:25:30;;;;;;;0.40;0.30;;;;;;;8.77;100.00;101786.34;5052595;28;20501;-71
2021/11/12 03:28:12;;;;;;;2.00;1.90;;;;;;;8.80;100.00;101777.69;5052684;28;20504;-71
2021/11/12 04:04:26;;;;;;;2.00;1.90;;;;;;;8.72;100.00;101759.28;4994134;28;20476;-70
2021/11/12 04:06:58;;;;;;;0.40;0.30;;;;;;;8.67;100.00;101759.22;5046137;28;20493;-71
2021/11/12 04:17:58;;;;;;;0.50;0.40;;;;;;;8.62;100.00;101756.50;5055380;28;20460;-70
2021/11/12 05:10:23;;;;;;;0.40;0.30;;;;;;;8.68;100.00;101755.47;5054449;28;20445;-70
2021/11/12 05:13:14;;;;;;;0.40;0.30;;;;;;;8.68;100.00;101757.38;5054545;28;20430;-70
2021/11/12 05:35:11;;;;;;;0.50;0.30;;;;;;;8.70;100.00;101747.09;5053804;28;20450;-70
2021/11/12 05:46:07;;;;;;;0.40;0.30;;;;;;;8.75;100.00;101739.03;5053600;28;20442;-71
2021/11/12 05:51:33;;;;;;;0.40;0.30;;;;;;;8.73;100.00;101747.41;5053536;28;20429;-71
2021/11/12 05:56:47;;;;;;;0.40;0.30;;;;;;;8.76;100.00;101751.47;5051929;28;20577;-70
2021/11/12 05:59:15;;;;;;;1.37;1.27;;;;;;;8.75;100.00;101749.84;5053658;28;20504;-70
2021/11/12 06:01:43;;;;;;;0.40;0.30;;;;;;;8.72;100.00;101745.78;5053540;28;20489;-70
2021/11/12 06:04:10;;;;;;;0.40;0.30;;;;;;;8.69;100.00;101753.59;5053601;28;20446;-70
2021/11/12 06:06:36;;;;;;;0.40;0.30;;;;;;;8.72;100.00;101759.28;5053440;28;20477;-71
2021/11/12 06:09:04;;;;;;;0.40;0.30;;;;;;;8.76;100.00;101749.56;5052784;28;20826;-71
2021/11/12 06:11:31;;;;;;;0.40;0.30;;;;;;;8.75;100.00;101747.94;5053523;28;20465;-70
2021/11/12 06:13:59;;;;;;;0.40;0.30;;;;;;;8.78;100.00;101757.44;5053438;28;20486;-71
2021/11/12 06:16:27;;;;;;;0.40;0.30;;;;;;;8.79;100.00;101750.94;5053378;28;20470;-70
2021/11/12 06:18:53;;;;;;;0.40;0.20;;;;;;;8.72;100.00;101744.94;5053413;28;20434;-69
2021/11/12 06:21:20;;;;;;;0.40;0.30;;;;;;;8.76;100.00;101759.56;5053357;28;20486;-70
2021/11/12 06:23:47;;;;;;;0.40;0.23;;;;;;;8.77;100.00;101756.63;5053492;28;20449;-70
2021/11/12 06:26:13;;;;;;;0.40;0.30;;;;;;;8.78;100.00;101755.53;5053216;28;20466;-69
2021/11/12 06:28:40;;;;;;;0.40;0.30;;;;;;;8.80;100.00;101750.69;5052993;28;20959;-70
2021/11/12 06:31:09;;;;;;;0.40;0.30;;;;;;;8.76;100.00;101751.47;5053107;28;20478;-69
2021/11/12 06:33:35;;;;;;;0.40;0.23;;;;;;;8.76;100.00;101760.38;5053201;28;20445;-69
2021/11/12 06:36:02;;;;;;;0.40;0.30;;;;;;;8.78;100.00;101758.25;5052804;28;20462;-70
2021/11/12 06:38:31;;;;;;;0.40;0.30;;;;;;;8.80;100.00;101760.66;5052527;28;20959;-70
2021/11/12 06:41:01;;;;;;;0.40;0.30;;;;;;;8.80;100.00;101758.78;5052974;28;20531;-70
2021/11/12 06:43:31;;;;;;;0.40;0.27;;;;;;;8.82;100.00;101759.34;5053117;28;20931;-70
2021/11/12 06:51:28;;;;;;;0.40;0.30;;;;;;;8.85;100.00;101752.59;5052895;28;20418;-70
2021/11/12 06:53:55;;;;;;;0.40;0.30;;;;;;;8.86;100.00;101753.44;5052670;28;20971;-70
2021/11/12 06:56:23;;;;;;;0.40;0.23;;;;;;;8.84;100.00;101754.50;5052906;28;20509;-70
2021/11/12 06:58:51;;;;;;;0.40;0.30;;;;;;;8.84;100.00;101751.78;5052956;28;20832;-70
2021/11/12 07:01:18;;;;;;;0.40;0.30;;;;;;;8.88;100.00;101738.56;5052884;28;20500;-69
2021/11/12 07:03:46;;;;;;;1.53;1.47;;;;;;;8.87;100.00;101749.66;5052737;28;20483;-69
2021/11/12 07:06:13;;;;;;;0.40;0.20;;;;;;;8.87;100.00;101745.06;5052706;28;20470;-73
2021/11/12 07:08:40;;;;;;;0.40;0.30;;;;;;;8.84;100.00;101748.28;5052951;28;20435;-71
2021/11/12 07:11:07;;;;;;;0.40;0.27;;;;;;;8.84;100.00;101746.38;5052504;28;20812;-71
2021/11/12 07:13:34;;;;;;;0.40;0.30;;;;;;;8.84;100.00;101750.97;5052456;28;20959;-71
2021/11/12 07:16:01;;;;;;;1.43;1.33;;;;;;;8.87;100.00;101749.66;5052691;28;20462;-71
2021/11/12 07:18:29;;;;;;;0.40;0.30;;;;;;;8.86;100.00;101748.84;5052758;28;20533;-72
2021/11/12 07:20:58;;;;;;;0.40;0.30;;;;;;;8.87;100.00;101749.66;5055506;28;20486;-75
2021/11/12 07:23:27;;;;;;;0.40;0.30;;;;;;;8.81;100.00;101755.03;5056631;28;20892;-74
2021/11/12 07:25:55;;;;;;;0.40;0.30;;;;;;;8.79;100.00;101753.66;5056440;28;20466;-73
2021/11/12 07:28:23;;;;;;;0.40;0.30;;;;;;;8.77;100.00;101751.22;5056521;28;20446;-73
2021/11/12 07:30:51;;;;;;;0.40;0.30;;;;;;;8.80;100.00;101752.56;5056503;28;20446;-72
2021/11/12 07:33:18;;;;;;;0.40;0.30;;;;;;;8.76;100.00;101746.88;5055838;28;20450;-71
2021/11/12 07:35:49;;;;;;;0.40;0.30;;;;;;;8.74;100.00;101746.31;5056343;28;20908;-71
2021/11/12 07:38:20;;;;;;;0.40;0.30;;;;;;;8.75;100.00;101741.72;5055521;28;20465;-71
2021/11/12 07:41:11;;;;;;;0.40;0.30;;;;;;;8.76;100.00;101741.47;5056345;28;20477;-71
2021/11/12 07:46:32;;;;;;;0.50;0.30;;;;;;;8.78;100.00;101743.94;5055909;28;20522;-71
2021/11/12 07:48:58;;;;;;;0.40;0.30;;;;;;;8.81;100.00;101744.22;5056150;28;20452;-71
2021/11/12 07:51:25;;;;;;;0.40;0.30;;;;;;;8.82;100.00;101747.72;5056111;28;20442;-72
2021/11/12 07:53:53;;;;;;;0.40;0.30;;;;;;;8.81;100.00;101746.13;5056331;28;20488;-73
2021/11/12 07:56:19;;;;;;;0.40;0.30;;;;;;;8.80;100.00;101744.47;5055964;28;20477;-71
2021/11/12 07:58:46;;;;;;;0.50;0.30;;;;;;;8.81;100.00;101741.53;5055969;28;20445;-71
2021/11/12 08:01:12;;;;;;;1.60;1.50;;;;;;;8.83;100.00;101741.25;5055837;28;20488;-70
2021/11/12 08:03:39;;;;;;;0.40;0.30;;;;;;;8.82;100.00;101745.03;5055760;28;20449;-70
2021/11/12 08:06:10;;;;;;;0.40;0.30;;;;;;;8.83;100.00;101738.56;5055753;28;20470;-70
2021/11/12 08:08:38;;;;;;;0.50;0.30;;;;;;;8.85;100.00;101722.88;5055459;28;20930;-71
2021/11/12 08:11:12;;;;;;;0.40;0.30;;;;;;;8.86;100.00;101723.72;5055412;28;20541;-71
2021/11/12 08:13:43;;;;;;;0.40;0.30;;;;;;;8.88;100.00;101711.56;5055723;28;20492;-70
2021/11/12 08:16:22;;;;;;;0.40;0.30;;;;;;;8.92;100.00;101709.16;5055742;28;20462;-70
2021/11/12 08:18:56;;;;;;;0.40;0.30;;;;;;;8.91;100.00;101707.53;5055625;28;20445;-70
2021/11/12 08:21:27;;;;;;;0.40;0.30;;;;;;;8.96;100.00;101710.25;5055472;28;20473;-70
2021/11/12 08:24:01;;;;;;;0.40;0.30;;;;;;;8.97;100.00;101707.28;5055269;28;20488;-70
2021/11/12 08:26:47;;;;;;;0.40;0.30;;;;;;;8.97;100.00;101706.47;5055538;28;20571;-71
2021/11/12 08:32:09;;;;;;;0.40;0.40;;;;;;;8.98;100.00;101702.69;5051951;28;20954;-70
2021/11/12 08:34:46;;;;;;;0.40;0.30;;;;;;;9.00;100.00;101700.56;5055252;28;20426;-71
2021/11/12 08:37:19;;;;;;;0.40;0.30;;;;;;;9.08;100.00;101702.75;5054972;28;20556;-71
2021/11/12 08:39:56;;;;;;;0.40;0.30;;;;;;;9.17;100.00;101703.06;5055426;28;20439;-70
2021/11/12 08:42:29;;;;;;;0.40;0.20;;;;;;;9.22;100.00;101697.69;5055102;28;20469;-70
2021/11/12 08:44:59;;;;;;;0.60;0.30;;;;;;;9.22;100.00;101697.69;5054866;28;20501;-70
2021/11/12 08:47:30;;;;;;;0.50;0.43;;;;;;;9.26;100.00;101696.88;5055078;28;20450;-70
2021/11/12 08:49:58;;;;;;;0.40;0.40;;;;;;;9.29;100.00;101699.03;5055112;28;20431;-71
2021/11/12 08:52:25;;;;;;;0.40;0.30;;;;;;;9.30;100.00;101711.50;5055146;28;20997;-71
2021/11/12 08:54:52;;;;;;;0.40;0.30;;;;;;;9.32;100.00;101700.41;5054797;28;20470;-72
2021/11/12 08:57:19;;;;;;;0.40;0.30;;;;;;;9.37;100.00;101702.31;5054884;28;20813;-70
2021/11/12 08:59:50;;;;;;;0.40;0.30;;;;;;;9.43;100.00;101696.69;5054514;28;20550;-70
2021/11/12 09:02:20;;;;;;;0.50;0.43;;;;;;;9.50;100.00;101696.41;5054686;28;20467;-70
2021/11/12 09:04:48;;;;;;;0.40;0.30;;;;;;;9.56;100.00;101692.63;5054890;28;20445;-71
2021/11/12 09:07:16;;;;;;;0.83;0.83;;;;;;;9.58;100.00;101685.88;5054619;28;20446;-70
2021/11/12 09:09:43;;;;;;;0.40;0.30;;;;;;;9.57;100.00;101678.88;5054567;28;20688;-70
2021/11/12 09:12:12;;;;;;;0.40;0.30;;;;;;;9.62;100.00;101671.84;5054484;28;20435;-70
2021/11/12 09:14:39;;;;;;;0.40;0.30;;;;;;;9.65;100.00;101685.66;5054121;28;20957;-71
2021/11/12 09:17:08;;;;;;;0.40;0.30;;;;;;;9.67;100.00;101672.66;5054154;28;20834;-70
2021/11/12 09:19:40;;;;;;;0.40;0.30;;;;;;;9.68;100.00;101671.56;5054425;28;20446;-70
2021/11/12 09:22:06;;;;;;;0.40;0.30;;;;;;;9.75;100.00;101676.72;5054339;28;20516;-70
2021/11/12 09:24:33;;;;;;;1.40;1.30;;;;;;;9.79;100.00;101670.50;5054263;28;20822;-70
2021/11/12 09:26:59;;;;;;;0.40;0.30;;;;;;;9.85;100.00;101668.63;5054521;28;20794;-70
2021/11/12 09:29:26;;;;;;;0.40;0.30;;;;;;;9.89;100.00;101663.50;5054211;28;20445;-70
2021/11/12 09:31:52;;;;;;;0.40;0.40;;;;;;;9.89;100.00;101658.06;5053986;28;20442;-70
2021/11/12 09:34:20;;;;;;;0.40;0.20;;;;;;;9.96;100.00;101669.44;5054105;28;20469;-70
2021/11/12 09:36:46;;;;;;;0.40;0.30;;;;;;;10.02;100.00;101676.47;5053481;28;20495;-70
2021/11/12 09:39:13;;;;;;;0.40;0.30;;;;;;;10.08;100.00;101667.28;5053399;28;20434;-71
2021/11/12 09:41:40;;;;;;;0.53;0.30;;;;;;;10.09;100.00;101664.31;5053052;28;20486;-70
2021/11/12 09:44:07;;;;;;;0.40;0.30;;;;;;;10.07;100.00;101671.06;5052799;28;20515;-70
2021/11/12 09:46:34;;;;;;;0.40;0.30;;;;;;;10.02;100.00;101668.38;5053218;28;20462;-70
2021/11/12 09:49:03;;;;;;;0.40;0.30;;;;;;;10.00;100.00;101660.50;5053266;28;20454;-70
2021/11/12 09:51:32;;;;;;;0.40;0.30;;;;;;;9.99;100.00;101663.47;5052876;28;20449;-70
2021/11/12 09:53:58;;;;;;;0.40;0.27;;;;;;;9.89;100.00;101660.78;5052809;28;20927;-70
2021/11/12 09:56:26;;;;;;;0.40;0.30;;;;;;;9.96;100.00;101658.59;5052878;28;20535;-70
2021/11/12 09:58:52;;;;;;;0.40;0.30;;;;;;;9.99;100.00;101652.66;5052712;28;20528;-70
2021/11/12 10:01:25;;;;;;;0.40;0.20;;;;;;;10.12;100.00;101646.69;5052182;28;20450;-70
2021/11/12 10:03:52;;;;;;;0.50;0.30;;;;;;;10.22;100.00;101640.47;5052597;28;20446;-71
2021/11/12 10:06:22;;;;;;;0.40;0.30;;;;;;;10.18;100.00;101651.03;5052815;28;20545;-70
2021/11/12 10:08:50;;;;;;;1.80;1.70;;;;;;;10.18;100.00;101637.50;5052827;28;20450;-72
2021/11/12 10:11:23;;;;;;;0.40;0.30;;;;;;;10.13;100.00;101629.38;5052629;28;21028;-72
2021/11/12 10:13:58;;;;;;;0.40;0.30;;;;;;;10.12;100.00;101619.63;5052514;28;20430;-71
2021/11/12 10:16:35;;;;;;;1.40;1.30;;;;;;;10.02;100.00;101622.34;5052725;28;20470;-71
2021/11/12 10:19:09;;;;;;;0.40;0.30;;;;;;;10.03;100.00;101621.25;5052769;28;20430;-71
2021/11/12 10:21:38;;;;;;;0.40;0.30;;;;;;;10.00;100.00;101622.59;5052693;28;20527;-70
2021/11/12 10:24:09;;;;;;;0.40;0.30;;;;;;;10.01;100.00;101618.84;5052620;28;20438;-71
2021/11/12 10:26:37;;;;;;;0.40;0.30;;;;;;;10.04;100.00;101614.75;5052652;28;20515;-70
2021/11/12 10:29:07;;;;;;;0.40;0.30;;;;;;;10.04;100.00;101609.34;5052305;28;20963;-70
2021/11/12 10:31:42;;;;;;;0.67;0.67;;;;;;;10.05;100.00;101613.69;5052618;28;20446;-70
2021/11/12 10:34:20;;;;;;;0.40;0.30;;;;;;;10.02;100.00;101600.69;5052595;28;20429;-70
2021/11/12 10:36:56;;;;;;;1.50;1.33;;;;;;;10.05;100.00;101597.47;5052316;28;20473;-70
2021/11/12 10:39:30;;;;;;;0.70;0.70;;;;;;;9.92;100.00;101588.00;5052426;28;20434;-71
2021/11/12 10:41:58;;;;;;;0.40;0.20;;;;;;;9.91;100.00;101580.94;5052239;28;20470;-70
2021/11/12 10:44:24;;;;;;;0.40;0.30;;;;;;;9.93;100.00;101583.38;5052514;28;20446;-70
2021/11/12 10:46:51;;;;;;;0.40;0.30;;;;;;;9.96;100.00;101580.13;5052353;28;20466;-70
2021/11/12 10:49:27;;;;;;;0.40;0.30;;;;;;;9.96;100.00;101582.81;5052089;28;20940;-70
2021/11/12 10:51:55;;;;;;;0.40;0.30;;;;;;;9.96;100.00;101588.22;5052427;28;20441;-71
2021/11/12 10:54:53;;;;;;;0.40;0.30;;;;;;;9.91;100.00;101582.81;5054526;28;20446;-70
2021/11/12 10:57:26;;;;;;;0.40;0.30;;;;;;;9.95;100.00;101582.00;5056650;28;20414;-70
2021/11/12 10:59:59;;;;;;;0.40;0.30;;;;;;;9.99;100.00;101585.00;5056444;28;20430;-70
2021/11/12 11:02:28;;;;;;;0.40;0.30;;;;;;;10.00;100.00;101568.47;5056407;28;20597;-70
2021/11/12 11:04:55;;;;;;;0.40;0.30;;;;;;;9.97;99.76;101560.91;5055987;28;20462;-70
2021/11/12 11:07:27;;;;;;;0.40;0.30;;;;;;;10.05;99.71;101560.38;5056295;28;20446;-70
2021/11/12 11:09:56;;;;;;;0.40;0.30;;;;;;;10.16;100.00;101558.44;5056321;28;20431;-70
2021/11/12 11:12:40;;;;;;;0.40;0.20;;;;;;;10.26;99.53;101546.81;5056213;28;20438;-70
2021/11/12 11:15:34;;;;;;;0.40;0.30;;;;;;;10.30;99.46;101545.97;5056067;28;20473;-70
2021/11/12 11:18:17;;;;;;;0.40;0.30;;;;;;;10.34;99.78;101552.47;5050898;28;20457;-70
2021/11/12 11:20:44;;;;;;;0.40;0.27;;;;;;;10.41;99.87;101556.78;5055831;28;20487;-70
2021/11/12 11:23:10;;;;;;;0.40;0.30;;;;;;;10.47;99.21;101552.97;5055433;28;20490;-70
2021/11/12 11:25:38;;;;;;;0.40;0.30;;;;;;;10.49;98.96;101558.91;5055899;28;20484;-70
2021/11/12 11:28:05;;;;;;;0.40;0.30;;;;;;;10.35;97.08;101543.25;5055786;28;20438;-71
2021/11/12 11:30:31;;;;;;;0.40;0.30;;;;;;;10.38;97.97;101541.09;5055894;28;20450;-70
2021/11/12 11:32:59;;;;;;;0.70;0.70;;;;;;;10.39;98.52;101540.81;5055824;28;20468;-70
2021/11/12 11:35:25;;;;;;;0.40;0.20;;;;;;;10.42;98.04;101539.44;5055749;28;20462;-70
2021/11/12 11:37:54;;;;;;;0.40;0.30;;;;;;;10.38;97.21;101536.47;5055161;28;20823;-70
2021/11/12 11:40:24;;;;;;;0.40;0.30;;;;;;;10.43;98.69;101531.03;5055401;28;20876;-70
2021/11/12 11:42:52;;;;;;;0.40;0.30;;;;;;;10.49;98.69;101532.66;5055451;28;21017;-70
2021/11/12 11:45:19;;;;;;;0.40;0.30;;;;;;;10.61;98.74;101532.31;5055559;28;20470;-72
2021/11/12 11:47:47;;;;;;;0.40;0.30;;;;;;;10.63;97.75;101522.03;5055764;28;20480;-73
2021/11/12 11:50:25;;;;;;;1.57;1.47;;;;;;;10.68;97.69;101519.28;5055185;28;20468;-71
2021/11/12 11:52:51;;;;;;;0.40;0.30;;;;;;;10.79;97.58;101518.13;5055650;28;20422;-70
2021/11/12 11:55:32;;;;;;;0.40;0.30;;;;;;;10.95;96.91;101510.75;5054884;28;20469;-70
2021/11/12 11:58:32;;;;;;;0.40;0.30;;;;;;;11.01;96.84;101506.91;5055426;28;20434;-71
2021/11/12 12:01:33;;;;;;;0.40;0.30;;;;;;;11.11;96.14;101498.72;5055317;28;20430;-69
2021/11/12 12:04:31;;;;;;;0.40;0.30;;;;;;;11.05;95.58;101494.41;5055102;28;20553;-70
2021/11/12 12:07:29;;;;;;;0.40;0.30;;;;;;;11.07;94.55;101486.81;5054394;28;20450;-70
2021/11/12 12:10:18;;;;;;;0.40;0.30;;;;;;;11.00;94.53;101478.19;5055207;28;20851;-71
2021/11/12 12:13:04;;;;;;;0.40;0.30;;;;;;;11.02;93.75;101477.88;5056505;28;20444;-70
2021/11/12 12:15:38;;;;;;;0.40;0.30;;;;;;;11.08;93.77;101464.03;5054666;28;21101;-71
2021/11/12 12:18:29;;;;;;;0.40;0.30;;;;;;;11.11;94.15;101463.47;5054928;28;20449;-71
2021/11/12 12:40:18;;;;;;;0.40;0.30;;;;;;;11.07;93.36;101461.59;5090116;27;20557;-70
2021/11/12 13:23:13;;;;;;;0.40;0.30;;;;;;;9.95;94.66;101406.09;5058921;28;20460;-70
2021/11/12 13:25:44;;;;;;;0.40;0.30;;;;;;;10.01;94.37;101404.22;5074587;28;20982;-69
2021/11/12 13:28:24;;;;;;;0.40;0.30;;;;;;;9.93;95.52;101405.59;5069012;28;20433;-70
2021/11/12 13:30:55;;;;;;;0.40;0.30;;;;;;;9.93;96.26;101411.00;5068861;28;20458;-70
2021/11/12 13:33:28;;;;;;;0.40;0.30;;;;;;;9.95;96.06;101397.19;5068943;28;20429;-70
2021/11/12 13:35:56;;;;;;;0.40;0.30;;;;;;;9.98;95.99;101402.03;5069043;28;20457;-70
2021/11/12 13:38:23;;;;;;;0.40;0.30;;;;;;;9.98;96.12;101391.22;5068392;28;20535;-70
2021/11/12 13:40:50;;;;;;;0.40;0.30;;;;;;;10.00;95.56;101399.84;5068843;28;20434;-69
2021/11/12 13:43:24;;;;;;;0.50;0.50;;;;;;;10.01;95.83;101396.91;5069315;28;20452;-70
2021/11/12 13:45:57;;;;;;;0.40;0.30;;;;;;;9.92;96.54;101395.03;5068876;28;21003;-70
2021/11/12 13:48:24;;;;;;;0.40;0.30;;;;;;;9.91;95.92;101396.09;5068969;28;20775;-69
2021/11/12 13:50:54;;;;;;;7.53;2.43;;;;;;;9.85;94.73;101396.13;5056424;28;20434;-70
2021/11/12 13:53:20;;;;;;;0.40;0.30;;;;;;;9.84;95.12;101386.41;5055909;28;20449;-70
2021/11/12 13:55:47;;;;;;;0.40;0.27;;;;;;;9.82;95.89;101380.44;5055496;28;21248;-70
2021/11/12 13:58:20;;;;;;;0.40;0.27;;;;;;;9.74;95.27;101383.72;5055769;28;20486;-71
2021/11/12 14:00:48;;;;;;;0.50;0.30;;;;;;;9.76;94.94;101378.84;5055820;28;20430;-70
2021/11/12 14:03:18;;;;;;;0.40;0.30;;;;;;;9.76;94.63;101386.97;5055779;28;20450;-69
2021/11/12 14:05:55;;;;;;;0.40;0.30;;;;;;;9.65;95.45;101381.84;5055631;28;20466;-70
2021/11/12 14:08:21;;;;;;;0.57;0.57;;;;;;;9.62;95.66;101375.09;5055646;28;20414;-70
2021/11/12 14:10:51;;;;;;;0.40;0.30;;;;;;;9.63;96.19;101374.00;5055655;28;20822;-70
2021/11/12 14:13:19;;;;;;;0.40;0.30;;;;;;;9.60;95.62;101388.06;5055564;28;20442;-70
2021/11/12 14:15:59;;;;;;;0.40;0.30;;;;;;;9.59;96.43;101386.47;5055346;28;20487;-70
2021/11/12 14:18:37;;;;;;;0.40;0.30;;;;;;;9.64;96.06;101380.22;5055401;28;20470;-70
2021/11/12 14:21:14;;;;;;;0.40;0.30;;;;;;;9.59;96.69;101372.94;5055451;28;20419;-70
2021/11/12 14:23:53;;;;;;;0.70;0.70;;;;;;;9.65;95.61;101371.88;5055366;28;20460;-69
2021/11/12 14:26:25;;;;;;;0.97;0.90;;;;;;;9.67;95.56;101366.16;5055263;28;20462;-70
2021/11/12 14:28:57;;;;;;;0.40;0.30;;;;;;;9.69;95.79;101369.41;5055290;28;20525;-69
2021/11/12 14:34:26;;;;;;;0.40;0.30;;;;;;;9.65;95.56;101371.88;5044268;28;20458;-69
2021/11/12 14:36:56;;;;;;;0.40;0.30;;;;;;;9.56;95.24;101362.66;5055081;28;20466;-69
2021/11/12 14:45:12;;;;;;;0.40;0.30;;;;;;;9.54;95.11;101352.13;5054587;28;20403;-69
2021/11/12 14:47:56;;;;;;;0.40;0.30;;;;;;;9.50;95.12;101344.84;5054992;28;20434;-70
2021/11/12 14:50:40;;;;;;;0.40;0.30;;;;;;;9.54;94.91;101340.50;5054613;28;20434;-69
2021/11/12 14:53:26;;;;;;;0.40;0.30;;;;;;;9.49;94.64;101335.13;5054871;28;20858;-70
2021/11/12 14:56:01;;;;;;;0.40;0.30;;;;;;;9.48;93.77;101336.22;5054722;28;20477;-70
2021/11/12 14:58:28;;;;;;;0.40;0.30;;;;;;;9.51;93.37;101341.03;5054698;28;20551;-70
2021/11/12 15:01:02;;;;;;;0.40;0.30;;;;;;;9.42;93.99;101329.97;5053339;28;20511;-70
2021/11/12 15:03:29;;;;;;;0.40;0.30;;;;;;;9.43;93.94;101331.63;5054136;28;20463;-70
2021/11/12 15:05:57;;;;;;;0.40;0.30;;;;;;;9.39;94.42;101327.03;5065838;28;20484;-70
2021/11/12 15:08:26;;;;;;;0.40;0.30;;;;;;;9.38;94.35;101330.81;5073812;28;20446;-71
2021/11/12 15:10:53;;;;;;;0.40;0.30;;;;;;;9.29;94.23;101331.38;5073784;28;20453;-70
2021/11/12 15:13:20;;;;;;;0.40;0.30;;;;;;;9.25;93.94;101324.91;5073867;28;20511;-71
2021/11/12 15:15:47;;;;;;;0.40;0.30;;;;;;;9.24;94.18;101327.88;5073334;28;20496;-69
2021/11/12 15:18:14;;;;;;;0.40;0.30;;;;;;;9.27;93.92;101333.53;5073482;28;20553;-69
2021/11/12 15:20:41;;;;;;;0.40;0.20;;;;;;;9.25;94.35;101327.63;5073014;28;20449;-69